sensor_id;sensor_type;location;lat;lon;timestamp;P1;durP1;ratioP1;P2;durP2;ratioP2
51485;SDS011;37565;51.352;6.412;2023-04-03T18:52:58;6.88;;;2.05;;
51485;SDS011;37565;51.352;6.412;2023-04-03T18:55:26;3.45;;;2.20;;
51485;SDS011;37565;51.352;6.412;2023-04-03T18:57:53;6.90;;;3.63;;
51485;SDS011;37565;51.352;6.412;2023-04-03T19:00:21;8.68;;;3.05;;
51485;SDS011;37565;51.352;6.412;2023-04-03T19:02:49;8.07;;;5.18;;
51485;SDS011;37565;51.352;6.412;2023-04-03T19:05:18;11.23;;;5.80;;
51485;SDS011;37565;51.352;6.412;2023-04-03T19:07:47;11.10;;;5.90;;
51485;SDS011;37565;51.352;6.412;2023-04-03T19:10:17;14.40;;;8.57;;
51485;SDS011;37565;51.352;6.412;2023-04-03T19:12:45;11.55;;;8.00;;
51485;SDS011;37565;51.352;6.412;2023-04-03T19:15:15;14.82;;;9.15;;
51485;SDS011;37565;51.352;6.412;2023-04-03T19:17:45;14.02;;;7.25;;
51485;SDS011;37565;51.352;6.412;2023-04-03T19:20:13;11.35;;;7.57;;
51485;SDS011;37565;51.352;6.412;2023-04-03T19:22:41;13.07;;;8.38;;
51485;SDS011;37565;51.352;6.412;2023-04-03T19:25:10;13.60;;;8.18;;
51485;SDS011;37565;51.352;6.412;2023-04-03T19:27:39;14.57;;;9.20;;
51485;SDS011;37565;51.352;6.412;2023-04-03T19:30:08;15.93;;;9.98;;
51485;SDS011;37565;51.352;6.412;2023-04-03T19:32:37;17.52;;;10.75;;
51485;SDS011;37565;51.352;6.412;2023-04-03T19:35:06;15.50;;;11.40;;
51485;SDS011;37565;51.352;6.412;2023-04-03T19:37:34;18.40;;;11.98;;
51485;SDS011;37565;51.352;6.412;2023-04-03T19:40:02;17.23;;;11.75;;
51485;SDS011;37565;51.352;6.412;2023-04-03T19:42:31;18.40;;;12.18;;
51485;SDS011;37565;51.352;6.412;2023-04-03T19:45:03;21.05;;;13.23;;
51485;SDS011;37565;51.352;6.412;2023-04-03T19:47:32;25.00;;;14.60;;
51485;SDS011;37565;51.352;6.412;2023-04-03T19:50:01;20.52;;;13.13;;
51485;SDS011;37565;51.352;6.412;2023-04-03T19:52:29;20.55;;;13.05;;
51485;SDS011;37565;51.352;6.412;2023-04-03T19:54:57;19.23;;;12.57;;
51485;SDS011;37565;51.352;6.412;2023-04-03T19:57:25;19.45;;;12.38;;
51485;SDS011;37565;51.352;6.412;2023-04-03T19:59:53;16.85;;;12.23;;
51485;SDS011;37565;51.352;6.412;2023-04-03T20:02:23;19.83;;;13.43;;
51485;SDS011;37565;51.352;6.412;2023-04-03T20:04:51;21.30;;;14.35;;
51485;SDS011;37565;51.352;6.412;2023-04-03T20:07:19;21.00;;;14.10;;
51485;SDS011;37565;51.352;6.412;2023-04-03T20:09:47;19.30;;;13.10;;
51485;SDS011;37565;51.352;6.412;2023-04-03T20:12:15;24.38;;;15.35;;
51485;SDS011;37565;51.352;6.412;2023-04-03T20:14:43;23.40;;;14.27;;
51485;SDS011;37565;51.352;6.412;2023-04-03T20:17:12;23.13;;;14.70;;
51485;SDS011;37565;51.352;6.412;2023-04-03T20:19:41;25.45;;;15.07;;
51485;SDS011;37565;51.352;6.412;2023-04-03T20:22:09;21.48;;;15.82;;
51485;SDS011;37565;51.352;6.412;2023-04-03T20:24:37;22.98;;;15.32;;
51485;SDS011;37565;51.352;6.412;2023-04-03T20:27:05;22.77;;;15.55;;
51485;SDS011;37565;51.352;6.412;2023-04-03T20:29:34;25.48;;;17.67;;
51485;SDS011;37565;51.352;6.412;2023-04-03T20:32:02;24.05;;;15.77;;
51485;SDS011;37565;51.352;6.412;2023-04-03T20:34:32;29.40;;;17.60;;
51485;SDS011;37565;51.352;6.412;2023-04-03T20:37:01;25.00;;;17.00;;
51485;SDS011;37565;51.352;6.412;2023-04-03T20:39:31;26.38;;;16.35;;
51485;SDS011;37565;51.352;6.412;2023-04-03T20:41:59;26.35;;;17.02;;
51485;SDS011;37565;51.352;6.412;2023-04-03T20:44:28;28.17;;;18.02;;
51485;SDS011;37565;51.352;6.412;2023-04-03T20:46:57;26.10;;;17.70;;
51485;SDS011;37565;51.352;6.412;2023-04-03T20:49:25;27.67;;;17.02;;
51485;SDS011;37565;51.352;6.412;2023-04-03T20:51:53;30.95;;;19.02;;
51485;SDS011;37565;51.352;6.412;2023-04-03T20:54:22;30.65;;;20.23;;
51485;SDS011;37565;51.352;6.412;2023-04-03T20:56:50;35.88;;;20.45;;
51485;SDS011;37565;51.352;6.412;2023-04-03T20:59:18;37.15;;;22.42;;
51485;SDS011;37565;51.352;6.412;2023-04-03T21:01:47;35.72;;;23.38;;
51485;SDS011;37565;51.352;6.412;2023-04-03T21:04:17;36.70;;;22.55;;
51485;SDS011;37565;51.352;6.412;2023-04-03T21:21:19;48.67;;;30.60;;
51485;SDS011;37565;51.352;6.412;2023-04-03T21:23:50;50.35;;;31.95;;
51485;SDS011;37565;51.352;6.412;2023-04-03T21:26:19;52.67;;;30.70;;
51485;SDS011;37565;51.352;6.412;2023-04-03T21:28:49;50.13;;;31.77;;
51485;SDS011;37565;51.352;6.412;2023-04-03T21:31:18;48.60;;;32.95;;
51485;SDS011;37565;51.352;6.412;2023-04-03T21:33:47;52.55;;;33.35;;
51485;SDS011;37565;51.352;6.412;2023-04-03T21:36:15;53.40;;;32.47;;
51485;SDS011;37565;51.352;6.412;2023-04-03T21:38:43;53.00;;;33.30;;
51485;SDS011;37565;51.352;6.412;2023-04-03T21:41:12;51.97;;;32.85;;
51485;SDS011;37565;51.352;6.412;2023-04-03T21:43:40;53.00;;;33.75;;
51485;SDS011;37565;51.352;6.412;2023-04-03T21:46:08;52.35;;;34.17;;
51485;SDS011;37565;51.352;6.412;2023-04-03T21:48:36;56.42;;;34.55;;
51485;SDS011;37565;51.352;6.412;2023-04-03T21:51:05;57.35;;;35.90;;
51485;SDS011;37565;51.352;6.412;2023-04-03T21:53:33;53.75;;;34.65;;
51485;SDS011;37565;51.352;6.412;2023-04-03T21:56:02;51.28;;;34.80;;
51485;SDS011;37565;51.352;6.412;2023-04-03T21:58:30;59.78;;;36.75;;
51485;SDS011;37565;51.352;6.412;2023-04-03T22:01:06;61.08;;;35.67;;
51485;SDS011;37565;51.352;6.412;2023-04-03T22:03:35;55.13;;;36.35;;
51485;SDS011;37565;51.352;6.412;2023-04-03T22:06:03;62.05;;;37.20;;
51485;SDS011;37565;51.352;6.412;2023-04-03T22:08:33;55.13;;;35.80;;
51485;SDS011;37565;51.352;6.412;2023-04-03T22:11:01;58.85;;;37.72;;
51485;SDS011;37565;51.352;6.412;2023-04-03T22:13:30;59.25;;;38.15;;
51485;SDS011;37565;51.352;6.412;2023-04-03T22:15:58;61.45;;;37.42;;
51485;SDS011;37565;51.352;6.412;2023-04-03T22:18:27;60.25;;;37.33;;
51485;SDS011;37565;51.352;6.412;2023-04-03T22:20:55;60.80;;;39.53;;
